createdAt,value
2019-05-07T00:01:23.066Z,71.05
2019-05-07T00:03:52.895Z,71.76
2019-05-07T00:06:23.096Z,71.90
2019-05-07T00:08:53.089Z,72.08
2019-05-07T00:11:22.472Z,72.03
2019-05-07T00:13:52.242Z,71.90
2019-05-07T00:16:22.455Z,71.84
2019-05-07T00:18:52.550Z,71.79
2019-05-07T00:21:23.296Z,71.62
2019-05-07T00:23:52.789Z,71.52
2019-05-07T00:26:22.595Z,71.81
2019-05-07T00:28:52.664Z,71.83
2019-05-07T00:31:23.265Z,71.90
2019-05-07T00:33:52.689Z,71.69
2019-05-07T00:39:32.783Z,71.52
2019-05-07T00:42:12.589Z,71.55
2019-05-07T00:44:57.419Z,71.60
2019-05-07T00:47:26.764Z,71.76
2019-05-07T00:49:57.806Z,72.06
2019-05-07T00:52:27.120Z,72.43
2019-05-07T00:54:56.256Z,72.60
2019-05-07T00:57:25.421Z,72.65
2019-05-07T00:59:54.645Z,72.76
2019-05-07T01:02:23.778Z,72.77
2019-05-07T01:04:53.331Z,73.02
2019-05-07T01:07:23.117Z,72.80
2019-05-07T01:09:52.611Z,72.92
2019-05-07T01:12:22.342Z,73.06
2019-05-07T01:14:52.908Z,73.35
2019-05-07T01:17:22.808Z,73.29
2019-05-07T01:19:53.209Z,73.29
2019-05-07T01:22:22.536Z,73.46
2019-05-07T01:24:52.641Z,73.49
2019-05-07T01:27:22.644Z,73.47
2019-05-07T01:29:52.810Z,73.51
2019-05-07T01:32:34.526Z,74.09
2019-05-07T01:35:22.651Z,73.81
2019-05-07T01:37:52.439Z,73.75
2019-05-07T01:40:22.791Z,73.89
2019-05-07T01:42:53.046Z,73.95
2019-05-07T01:45:25.004Z,73.88
2019-05-07T01:47:53.376Z,73.87
2019-05-07T01:50:22.854Z,73.89
2019-05-07T01:52:52.349Z,74.00
2019-05-07T01:55:22.605Z,73.87
2019-05-07T01:57:52.389Z,73.99
2019-05-07T02:00:22.426Z,73.96
2019-05-07T02:02:59.895Z,73.86
2019-05-07T02:05:35.469Z,73.80
2019-05-07T02:08:07.334Z,73.65
2019-05-07T02:10:42.795Z,73.56
2019-05-07T02:13:12.590Z,73.48
2019-05-07T02:15:42.852Z,73.37
2019-05-07T02:18:12.733Z,73.38
2019-05-07T02:20:42.602Z,73.34
2019-05-07T02:23:12.802Z,73.32
2019-05-07T02:25:42.758Z,73.37
2019-05-07T02:28:12.849Z,73.42
2019-05-07T02:30:44.369Z,73.43
2019-05-07T02:33:13.724Z,73.32
2019-05-07T02:35:44.039Z,73.31
2019-05-07T02:38:18.660Z,73.29
2019-05-07T02:40:53.430Z,73.29
2019-05-07T02:43:22.987Z,73.30
2019-05-07T02:49:03.132Z,73.57
2019-05-07T02:51:37.321Z,73.59
2019-05-07T02:54:16.563Z,73.76
2019-05-07T02:56:45.713Z,73.76
2019-05-07T02:59:14.871Z,73.60
2019-05-07T03:01:44.397Z,73.54
2019-05-07T03:04:13.559Z,73.59
2019-05-07T03:06:44.273Z,73.67
2019-05-07T03:09:14.376Z,73.70
2019-05-07T03:11:43.937Z,73.68
2019-05-07T03:14:14.067Z,73.69
2019-05-07T03:16:47.825Z,73.71
2019-05-07T03:19:14.394Z,73.72
2019-05-07T03:21:55.694Z,73.60
2019-05-07T03:24:34.229Z,73.67
2019-05-07T03:27:03.455Z,73.66
2019-05-07T03:29:33.558Z,73.70
2019-05-07T03:32:39.400Z,73.61
2019-05-07T03:35:45.848Z,73.52
2019-05-07T03:38:13.207Z,73.47
2019-05-07T03:40:44.493Z,73.50
2019-05-07T03:43:13.827Z,73.72
2019-05-07T03:45:53.995Z,73.82
2019-05-07T03:48:24.910Z,73.77
2019-05-07T03:50:54.030Z,73.79
2019-05-07T03:53:23.601Z,73.75
2019-05-07T03:55:53.687Z,73.82
2019-05-07T03:58:23.855Z,73.81
2019-05-07T04:00:53.872Z,73.68
2019-05-07T04:03:24.227Z,73.71
2019-05-07T04:05:55.380Z,73.77
2019-05-07T04:08:24.541Z,74.00
2019-05-07T04:10:54.205Z,73.99
2019-05-07T04:13:24.242Z,74.25
2019-05-07T04:15:53.785Z,74.40
2019-05-07T04:18:23.810Z,74.31
2019-05-07T04:20:54.004Z,74.33
2019-05-07T04:23:23.739Z,74.52
2019-05-07T04:29:06.517Z,74.55
2019-05-07T04:31:42.983Z,74.45
2019-05-07T04:34:23.740Z,74.50
2019-05-07T04:36:53.504Z,74.54
2019-05-07T04:39:23.418Z,74.61
2019-05-07T04:41:53.220Z,74.53
2019-05-07T04:44:23.562Z,74.65
2019-05-07T04:46:53.456Z,74.69
2019-05-07T04:49:23.901Z,74.92
2019-05-07T04:52:15.557Z,74.99
2019-05-07T04:54:44.760Z,74.95
2019-05-07T04:57:25.920Z,74.88
2019-05-07T04:59:56.593Z,74.79
2019-05-07T05:02:37.086Z,74.68
2019-05-07T05:05:06.288Z,74.75
2019-05-07T05:07:35.429Z,74.79
2019-05-07T05:10:04.797Z,74.92
2019-05-07T05:12:33.901Z,75.25
2019-05-07T05:15:03.065Z,75.59
2019-05-07T05:17:32.238Z,75.59
2019-05-07T05:20:03.523Z,75.64
2019-05-07T05:23:06.649Z,75.71
2019-05-07T05:25:37.936Z,75.76
2019-05-07T05:28:07.101Z,74.93
2019-05-07T05:30:49.430Z,74.33
2019-05-07T05:33:18.541Z,73.88
2019-05-07T05:35:47.697Z,73.63
2019-05-07T05:38:27.030Z,73.61
2019-05-07T05:40:56.313Z,73.26
2019-05-07T05:43:32.031Z,72.83
2019-05-07T05:46:02.840Z,72.43
2019-05-07T05:48:33.434Z,72.31
2019-05-07T05:51:11.830Z,71.94
2019-05-07T05:54:05.501Z,72.79
2019-05-07T05:56:46.703Z,72.35
2019-05-07T05:59:50.206Z,72.14
2019-05-07T06:02:38.705Z,71.14
2019-05-07T06:05:39.285Z,70.91
2019-05-07T06:08:20.064Z,70.34
2019-05-07T06:10:59.703Z,70.37
2019-05-07T06:13:41.938Z,70.12
2019-05-07T06:16:16.789Z,69.81
2019-05-07T06:18:53.401Z,70.19
2019-05-07T06:21:47.598Z,70.82
2019-05-07T06:24:19.788Z,68.29
2019-05-07T06:26:48.887Z,68.32
2019-05-07T06:29:20.012Z,67.36
2019-05-07T06:32:03.353Z,67.47
2019-05-07T06:34:34.261Z,67.31
2019-05-07T06:37:03.625Z,67.01
2019-05-07T06:39:39.354Z,66.52
2019-05-07T06:42:26.292Z,66.17
2019-05-07T06:45:18.814Z,66.16
2019-05-07T06:47:47.986Z,65.21
2019-05-07T06:50:17.110Z,64.94
2019-05-07T06:52:46.234Z,63.76
2019-05-07T06:55:15.570Z,64.29
2019-05-07T06:57:44.794Z,65.20
2019-05-07T07:00:33.746Z,65.23
2019-05-07T07:03:12.714Z,63.09
2019-05-07T07:06:03.638Z,63.27
2019-05-07T07:08:38.188Z,63.93
2019-05-07T07:11:22.445Z,64.16
2019-05-07T07:13:52.002Z,63.73
2019-05-07T07:16:22.624Z,62.83
2019-05-07T07:18:55.332Z,62.39
2019-05-07T07:21:22.674Z,60.60
2019-05-07T07:23:52.388Z,61.67
2019-05-07T07:26:22.197Z,62.33
2019-05-07T07:28:52.492Z,62.51
2019-05-07T07:31:28.021Z,62.37
2019-05-07T07:33:58.254Z,61.19
2019-05-07T07:36:31.914Z,60.05
2019-05-07T07:39:02.073Z,58.45
2019-05-07T07:41:43.217Z,55.94
2019-05-07T07:44:13.316Z,55.03
2019-05-07T07:46:42.663Z,53.97
2019-05-07T07:49:14.881Z,54.88
2019-05-07T07:51:45.629Z,54.15
2019-05-07T07:54:13.723Z,52.00
2019-05-07T07:56:53.171Z,47.23
2019-05-07T07:59:37.368Z,44.13
2019-05-07T08:02:42.439Z,44.13
2019-05-07T08:05:12.497Z,44.09
2019-05-07T08:07:42.637Z,45.98
2019-05-07T08:10:12.945Z,47.30
2019-05-07T08:12:42.298Z,46.99
2019-05-07T08:15:18.187Z,49.00
2019-05-07T08:17:42.468Z,50.41
2019-05-07T08:20:12.765Z,48.50
2019-05-07T08:22:42.400Z,50.68
2019-05-07T08:25:12.573Z,50.74
2019-05-07T08:27:42.085Z,50.90
2019-05-07T08:30:14.088Z,50.59
2019-05-07T08:32:50.209Z,49.30
2019-05-07T08:35:41.929Z,47.94
2019-05-07T08:38:12.772Z,48.18
2019-05-07T08:40:42.077Z,47.88
2019-05-07T08:43:12.607Z,47.15
2019-05-07T08:46:12.903Z,47.21
2019-05-07T08:48:47.447Z,45.11
2019-05-07T08:51:16.625Z,47.32
2019-05-07T08:53:47.419Z,47.81
2019-05-07T08:56:16.573Z,47.67
2019-05-07T08:58:45.709Z,47.97
2019-05-07T09:01:14.879Z,48.24
2019-05-07T09:03:43.998Z,47.76
2019-05-07T09:06:14.348Z,46.68
2019-05-07T09:08:43.756Z,46.87
2019-05-07T09:11:13.435Z,47.88
2019-05-07T09:13:42.773Z,48.36
2019-05-07T09:16:13.008Z,46.55
2019-05-07T09:18:42.387Z,47.71
2019-05-07T09:21:12.604Z,48.17
2019-05-07T09:23:42.488Z,48.43
2019-05-07T09:26:13.383Z,48.03
2019-05-07T09:29:11.809Z,47.21
2019-05-07T09:32:15.129Z,47.06
2019-05-07T09:34:46.330Z,47.05
2019-05-07T09:37:18.937Z,47.83
2019-05-07T09:39:48.127Z,48.19
2019-05-07T09:42:17.367Z,48.53
2019-05-07T09:44:46.525Z,47.95
2019-05-07T09:47:15.643Z,48.73
2019-05-07T09:49:44.789Z,49.54
2019-05-07T09:52:13.903Z,49.41
2019-05-07T09:54:43.080Z,49.56
2019-05-07T09:57:27.702Z,49.46
2019-05-07T09:59:43.141Z,48.55
2019-05-07T10:02:12.385Z,48.41
2019-05-07T10:04:41.837Z,46.85
2019-05-07T10:07:12.729Z,47.14
2019-05-07T10:09:42.683Z,46.62
2019-05-07T10:12:25.395Z,47.34
2019-05-07T10:14:54.637Z,46.07
2019-05-07T10:17:33.621Z,46.24
2019-05-07T10:20:07.249Z,46.54
2019-05-07T10:22:36.381Z,47.84
2019-05-07T10:25:06.017Z,47.30
2019-05-07T10:27:35.155Z,47.29
2019-05-07T10:30:04.681Z,46.41
2019-05-07T10:32:33.812Z,44.46
2019-05-07T10:35:02.978Z,44.98
2019-05-07T10:37:32.163Z,44.86
2019-05-07T10:40:03.099Z,44.62
2019-05-07T10:42:32.536Z,43.66
2019-05-07T10:45:21.904Z,44.60
2019-05-07T10:48:11.669Z,44.96
2019-05-07T10:50:42.840Z,45.41
2019-05-07T10:53:12.541Z,44.74
2019-05-07T10:55:42.882Z,43.36
2019-05-07T10:58:12.667Z,44.09
2019-05-07T11:00:42.399Z,44.40
2019-05-07T11:03:12.682Z,44.98
2019-05-07T11:05:42.064Z,45.23
2019-05-07T11:08:11.442Z,45.25
2019-05-07T11:10:41.882Z,43.80
2019-05-07T11:13:12.811Z,44.36
2019-05-07T11:15:43.831Z,44.62
2019-05-07T11:18:21.831Z,44.01
2019-05-07T11:20:53.526Z,44.63
2019-05-07T11:23:22.305Z,45.24
2019-05-07T11:25:52.640Z,45.35
2019-05-07T11:28:22.720Z,44.64
2019-05-07T11:30:51.955Z,44.71
2019-05-07T11:33:22.060Z,44.12
2019-05-07T11:35:52.771Z,44.25
2019-05-07T11:38:24.838Z,43.58
2019-05-07T11:40:52.900Z,44.04
2019-05-07T11:43:43.823Z,44.59
2019-05-07T11:46:32.795Z,44.24
2019-05-07T11:49:22.740Z,43.81
2019-05-07T11:52:07.271Z,43.41
2019-05-07T11:54:36.425Z,44.58
2019-05-07T11:57:05.666Z,43.59
2019-05-07T11:59:34.800Z,42.45
2019-05-07T12:02:05.807Z,41.61
2019-05-07T12:04:34.984Z,41.07
2019-05-07T12:07:04.103Z,41.23
2019-05-07T12:09:33.465Z,40.97
2019-05-07T12:12:02.652Z,36.86
2019-05-07T12:14:34.861Z,38.12
2019-05-07T12:17:02.876Z,38.06
2019-05-07T12:19:33.115Z,40.30
2019-05-07T12:22:03.098Z,39.85
2019-05-07T12:24:39.360Z,39.93
2019-05-07T12:27:08.642Z,38.17
2019-05-07T12:29:37.964Z,37.05
2019-05-07T12:32:22.044Z,36.67
2019-05-07T12:34:57.275Z,38.03
2019-05-07T12:37:26.420Z,39.13
2019-05-07T12:39:55.565Z,39.61
2019-05-07T12:42:24.678Z,39.55
2019-05-07T12:44:53.833Z,38.96
2019-05-07T12:47:22.964Z,39.16
2019-05-07T12:49:52.100Z,39.41
2019-05-07T12:52:36.556Z,38.61
2019-05-07T12:55:11.906Z,38.16
2019-05-07T12:57:42.072Z,37.82
2019-05-07T13:00:32.206Z,37.57
2019-05-07T13:03:18.386Z,37.80
2019-05-07T13:05:47.562Z,37.73
2019-05-07T13:08:16.885Z,37.21
2019-05-07T13:10:46.044Z,36.88
2019-05-07T13:13:15.222Z,35.86
2019-05-07T13:15:44.348Z,35.96
2019-05-07T13:18:13.500Z,35.59
2019-05-07T13:20:42.680Z,35.73
2019-05-07T13:23:12.066Z,35.82
2019-05-07T13:25:42.965Z,35.96
2019-05-07T13:28:12.349Z,35.67
2019-05-07T13:30:43.617Z,36.03
2019-05-07T13:33:13.303Z,36.33
2019-05-07T13:35:44.406Z,35.46
2019-05-07T13:38:48.315Z,35.19
2019-05-07T13:41:35.378Z,35.20
2019-05-07T13:44:38.652Z,35.88
2019-05-07T13:47:27.810Z,36.28
2019-05-07T13:49:57.170Z,36.33
2019-05-07T13:52:26.417Z,36.04
2019-05-07T13:54:55.755Z,36.52
2019-05-07T13:57:24.996Z,36.79
2019-05-07T13:59:54.565Z,36.83
2019-05-07T14:02:25.646Z,36.91
2019-05-07T14:04:54.906Z,37.15
2019-05-07T14:07:24.927Z,37.44
2019-05-07T14:09:54.055Z,37.49
2019-05-07T14:12:23.325Z,37.44
2019-05-07T14:14:53.164Z,37.10
2019-05-07T14:17:22.664Z,37.72
2019-05-07T14:19:53.086Z,37.75
2019-05-07T14:22:22.828Z,37.81
2019-05-07T14:24:53.073Z,37.95
2019-05-07T14:27:22.409Z,37.96
2019-05-07T14:29:52.191Z,36.84
2019-05-07T14:32:30.963Z,37.36
2019-05-07T14:35:12.734Z,37.46
2019-05-07T14:37:48.241Z,37.68
2019-05-07T14:40:17.473Z,36.85
2019-05-07T14:42:52.511Z,37.01
2019-05-07T14:45:23.761Z,37.14
2019-05-07T14:47:52.700Z,37.58
2019-05-07T14:50:22.590Z,37.60
2019-05-07T14:52:55.040Z,37.25
2019-05-07T14:55:22.822Z,37.41
2019-05-07T14:57:52.490Z,37.68
2019-05-07T15:00:22.550Z,37.65
2019-05-07T15:02:52.467Z,36.99
2019-05-07T15:05:22.331Z,36.96
2019-05-07T15:07:51.677Z,37.54
2019-05-07T15:10:22.238Z,37.41
2019-05-07T15:12:52.150Z,37.37
2019-05-07T15:15:22.049Z,36.66
2019-05-07T15:17:59.203Z,36.60
2019-05-07T15:20:28.571Z,37.10
2019-05-07T15:23:11.976Z,36.93
2019-05-07T15:25:41.968Z,38.29
2019-05-07T15:28:12.272Z,39.47
2019-05-07T15:30:49.066Z,40.23
2019-05-07T15:33:18.224Z,40.31
2019-05-07T15:35:47.356Z,40.03
2019-05-07T15:38:16.525Z,40.36
2019-05-07T15:40:45.669Z,40.50
2019-05-07T15:43:14.847Z,41.55
2019-05-07T15:45:43.956Z,41.74
2019-05-07T15:48:13.214Z,41.94
2019-05-07T15:50:42.856Z,42.07
2019-05-07T15:53:17.610Z,42.59
2019-05-07T15:55:46.736Z,42.67
2019-05-07T15:58:15.940Z,43.52
2019-05-07T16:00:45.040Z,43.57
2019-05-07T16:03:22.269Z,43.76
2019-05-07T16:05:53.014Z,43.26
2019-05-07T16:08:22.761Z,43.88
2019-05-07T16:10:53.137Z,43.91
2019-05-07T16:13:26.144Z,43.82
2019-05-07T16:15:55.297Z,43.37
2019-05-07T16:18:29.322Z,43.35
2019-05-07T16:20:58.502Z,43.68
2019-05-07T16:23:27.659Z,43.75
2019-05-07T16:25:56.812Z,43.79
2019-05-07T16:28:25.928Z,43.88
2019-05-07T16:30:55.132Z,43.83
2019-05-07T16:33:24.276Z,43.78
2019-05-07T16:35:53.423Z,42.30
2019-05-07T16:38:22.591Z,42.16
2019-05-07T16:40:52.170Z,42.76
2019-05-07T16:43:22.116Z,42.34
2019-05-07T16:45:51.870Z,42.32
2019-05-07T16:48:23.118Z,42.14
2019-05-07T16:50:52.331Z,42.61
2019-05-07T16:53:29.671Z,43.46
2019-05-07T16:55:52.438Z,43.93
2019-05-07T16:58:43.631Z,44.32
2019-05-07T17:01:13.039Z,44.70
2019-05-07T17:03:55.033Z,44.85
2019-05-07T17:06:25.225Z,44.92
2019-05-07T17:09:19.731Z,44.92
2019-05-07T17:11:48.899Z,45.07
2019-05-07T17:14:18.048Z,45.25
2019-05-07T17:16:47.543Z,45.21
2019-05-07T17:19:16.664Z,45.24
2019-05-07T17:21:45.823Z,45.30
2019-05-07T17:24:15.057Z,45.57
2019-05-07T17:26:44.228Z,45.58
2019-05-07T17:29:13.360Z,46.39
2019-05-07T17:31:42.665Z,46.14
2019-05-07T17:34:11.964Z,46.40
2019-05-07T17:36:42.155Z,46.26
2019-05-07T17:39:12.119Z,46.70
2019-05-07T17:41:42.893Z,46.92
2019-05-07T17:44:12.301Z,46.64
2019-05-07T17:46:42.845Z,47.06
2019-05-07T17:49:12.309Z,47.46
2019-05-07T17:51:44.660Z,47.43
2019-05-07T17:54:14.117Z,47.47
2019-05-07T17:56:43.400Z,47.40
2019-05-07T17:59:12.756Z,47.63
2019-05-07T18:02:16.081Z,48.23
2019-05-07T18:04:51.551Z,48.04
2019-05-07T18:07:18.423Z,48.13
2019-05-07T18:09:47.582Z,48.16
2019-05-07T18:12:16.735Z,48.59
2019-05-07T18:14:45.887Z,49.34
2019-05-07T18:17:22.123Z,49.31
2019-05-07T18:19:51.161Z,49.51
2019-05-07T18:22:22.121Z,49.68
2019-05-07T18:24:51.407Z,50.04
2019-05-07T18:27:24.744Z,50.23
2019-05-07T18:29:53.906Z,50.33
2019-05-07T18:32:27.419Z,50.49
2019-05-07T18:34:56.587Z,50.38
2019-05-07T18:37:25.833Z,50.67
2019-05-07T18:39:54.998Z,50.63
2019-05-07T18:42:24.329Z,51.19
2019-05-07T18:44:53.450Z,51.43
2019-05-07T18:47:22.605Z,51.32
2019-05-07T18:49:52.024Z,51.92
2019-05-07T18:52:23.025Z,52.82
2019-05-07T18:54:52.209Z,53.23
2019-05-07T18:57:22.210Z,53.22
2019-05-07T18:59:53.110Z,53.64
2019-05-07T19:02:22.717Z,54.15
2019-05-07T19:04:52.024Z,54.55
2019-05-07T19:07:23.069Z,55.04
2019-05-07T19:09:52.632Z,55.64
2019-05-07T19:12:24.446Z,55.88
2019-05-07T19:14:53.669Z,56.15
2019-05-07T19:17:25.527Z,56.30
2019-05-07T19:19:53.718Z,56.24
2019-05-07T19:22:22.853Z,56.33
2019-05-07T19:24:52.711Z,56.54
2019-05-07T19:27:22.139Z,56.66
2019-05-07T19:29:51.259Z,57.05
2019-05-07T19:32:22.718Z,57.39
2019-05-07T19:34:53.281Z,57.61
2019-05-07T19:37:22.440Z,57.86
2019-05-07T19:39:52.352Z,58.11
2019-05-07T19:42:21.618Z,58.27
2019-05-07T19:44:51.881Z,58.68
2019-05-07T19:47:23.182Z,58.86
2019-05-07T19:49:52.547Z,58.96
2019-05-07T19:52:23.100Z,59.04
2019-05-07T19:55:00.872Z,59.22
2019-05-07T19:57:28.294Z,59.35
2019-05-07T19:59:57.444Z,59.68
2019-05-07T20:02:32.105Z,59.66
2019-05-07T20:05:00.471Z,59.71
2019-05-07T20:07:31.859Z,59.83
2019-05-07T20:10:02.701Z,59.76
2019-05-07T20:12:32.701Z,59.85
2019-05-07T20:15:02.791Z,60.10
2019-05-07T20:17:33.964Z,60.39
2019-05-07T20:20:03.191Z,60.63
2019-05-07T20:22:33.286Z,60.93
2019-05-07T20:25:15.274Z,61.12
2019-05-07T20:27:33.356Z,61.35
2019-05-07T20:30:03.123Z,61.48
2019-05-07T20:32:33.036Z,61.67
2019-05-07T20:35:02.818Z,61.78
2019-05-07T20:37:32.989Z,61.92
2019-05-07T20:40:02.994Z,62.01
2019-05-07T20:42:32.855Z,62.08
2019-05-07T20:45:03.021Z,62.18
2019-05-07T20:47:32.662Z,62.29
2019-05-07T20:50:01.985Z,62.40
2019-05-07T20:52:32.565Z,62.66
2019-05-07T20:55:07.911Z,62.96
2019-05-07T20:57:39.711Z,63.18
2019-05-07T21:00:15.163Z,63.34
2019-05-07T21:02:48.158Z,63.53
2019-05-07T21:05:15.283Z,63.72
2019-05-07T21:07:44.417Z,63.88
2019-05-07T21:10:13.527Z,64.02
2019-05-07T21:12:42.680Z,64.12
2019-05-07T21:15:12.440Z,64.21
2019-05-07T21:17:42.865Z,64.52
2019-05-07T21:20:12.210Z,64.73
2019-05-07T21:22:42.561Z,64.78
2019-05-07T21:25:12.075Z,64.96
2019-05-07T21:27:43.174Z,64.88
2019-05-07T21:30:13.148Z,64.93
2019-05-07T21:32:42.341Z,64.96
2019-05-07T21:35:11.573Z,65.06
2019-05-07T21:37:41.793Z,65.08
2019-05-07T21:40:13.026Z,65.24
2019-05-07T21:42:42.607Z,65.33
2019-05-07T21:45:11.719Z,65.46
2019-05-07T21:47:40.871Z,65.41
2019-05-07T21:50:12.302Z,65.40
2019-05-07T21:52:43.461Z,65.53
2019-05-07T21:55:22.905Z,65.62
2019-05-07T21:58:02.500Z,65.68
2019-05-07T22:00:54.143Z,65.71
2019-05-07T22:03:23.543Z,65.84
2019-05-07T22:05:52.671Z,65.94
2019-05-07T22:08:22.048Z,66.18
2019-05-07T22:10:51.201Z,66.26
2019-05-07T22:13:22.071Z,66.31
2019-05-07T22:15:52.193Z,66.41
2019-05-07T22:18:22.654Z,66.46
2019-05-07T22:20:52.283Z,66.50
2019-05-07T22:23:24.467Z,66.55
2019-05-07T22:25:52.293Z,66.67
2019-05-07T22:28:22.457Z,66.68
2019-05-07T22:31:14.344Z,66.75
2019-05-07T22:34:02.434Z,66.85
2019-05-07T22:36:32.717Z,66.95
2019-05-07T22:39:02.117Z,67.05
2019-05-07T22:41:31.868Z,67.24
2019-05-07T22:44:02.533Z,67.27
2019-05-07T22:46:32.702Z,67.30
2019-05-07T22:49:03.095Z,67.23
2019-05-07T22:51:32.365Z,67.10
2019-05-07T22:54:04.136Z,67.23
2019-05-07T22:56:49.868Z,67.16
2019-05-07T22:59:19.008Z,67.22
2019-05-07T23:01:48.164Z,67.20
2019-05-07T23:04:17.353Z,67.26
2019-05-07T23:06:46.468Z,67.40
2019-05-07T23:09:15.618Z,67.90
2019-05-07T23:11:44.748Z,67.82
2019-05-07T23:14:13.911Z,67.90
2019-05-07T23:16:43.147Z,68.06
2019-05-07T23:19:14.047Z,68.49
2019-05-07T23:21:43.106Z,68.52
2019-05-07T23:24:12.221Z,68.48
2019-05-07T23:26:50.347Z,68.59
2019-05-07T23:29:12.271Z,68.69
2019-05-07T23:31:41.379Z,68.67
2019-05-07T23:34:12.467Z,68.70
2019-05-07T23:36:42.198Z,68.71
2019-05-07T23:39:13.151Z,68.68
2019-05-07T23:41:53.368Z,68.58
2019-05-07T23:44:22.979Z,68.64
2019-05-07T23:46:53.360Z,68.78
2019-05-07T23:49:23.216Z,68.78
2019-05-07T23:51:53.176Z,68.85
2019-05-07T23:54:23.142Z,69.13
2019-05-07T23:57:04.916Z,69.13
2019-05-07T23:59:23.232Z,69.12
